Time;durP1;ratioP1;P1;durP2;ratioP2;P2;SDS_P1;SDS_P2;PMS_P1;PMS_P2;Temp;Humidity;BMP_temperature;BMP_pressure;BME280_temperature;BME280_humidity;BME280_pressure;Samples;Min_cycle;Max_cycle;Signal;HPM_P1;HPM_P2
2022/09/16 00:00:33;;;;;;;0.47;0.40;;;18.40;62.00;20.40;93437.00;;;;10559124;27;45153;-59
2022/09/16 00:05:54;;;;;;;0.43;0.40;;;18.30;61.80;20.40;93428.00;;;;10559099;27;45676;-61
2022/09/16 00:11:15;;;;;;;2.00;0.40;;;18.30;61.80;20.40;93441.00;;;;10559545;27;45296;-59
2022/09/16 00:16:37;;;;;;;0.43;0.40;;;18.30;61.80;20.40;93437.00;;;;10546757;27;45175;-61
2022/09/16 00:21:58;;;;;;;0.70;0.50;;;18.30;61.70;20.40;93431.00;;;;10521903;27;45258;-60
2022/09/16 00:27:18;;;;;;;0.57;0.40;;;18.30;61.70;20.40;93438.00;;;;10544252;27;45369;-60
2022/09/16 00:32:40;;;;;;;0.35;0.35;;;18.30;61.70;20.40;93432.00;;;;10555039;27;45723;-58
2022/09/16 00:38:01;;;;;;;1.95;0.50;;;18.30;61.70;20.40;93437.00;;;;10515842;27;45233;-60
2022/09/16 00:43:21;;;;;;;0.32;0.32;;;18.30;61.60;20.40;93435.00;;;;10516356;27;45181;-59
2022/09/16 00:48:44;;;;;;;0.52;0.32;;;18.30;61.50;20.40;93425.00;;;;10545581;27;45217;-59
2022/09/16 00:54:08;;;;;;;0.55;0.40;;;18.30;61.60;20.40;93407.00;;;;10520470;27;45726;-61
2022/09/16 00:59:33;;;;;;;0.68;0.40;;;18.30;61.50;20.40;93411.00;;;;10512848;27;45469;-58
2022/09/16 01:05:00;;;;;;;0.77;0.40;;;18.30;61.50;20.40;93399.00;;;;10541277;27;45182;-58
2022/09/16 01:10:24;;;;;;;1.08;0.50;;;18.40;61.60;20.40;93408.00;;;;10557366;27;45695;-60
2022/09/16 01:15:55;;;;;;;0.55;0.50;;;18.30;61.50;20.40;93397.00;;;;10547616;27;45236;-60
2022/09/16 01:21:33;;;;;;;0.52;0.30;;;18.30;61.50;20.40;93408.00;;;;10525118;27;45332;-59
2022/09/16 01:27:21;;;;;;;0.40;0.40;;;18.30;61.40;20.40;93412.00;;;;10538995;27;45222;-59
2022/09/16 01:33:00;;;;;;;0.70;0.50;;;18.30;61.40;20.40;93416.00;;;;10553228;27;45224;-60
2022/09/16 01:38:35;;;;;;;0.77;0.43;;;18.20;61.30;20.40;93418.00;;;;10513806;27;45314;-60
2022/09/16 01:44:03;;;;;;;0.50;0.38;;;18.30;61.30;20.40;93408.00;;;;10544999;27;45836;-59
2022/09/16 01:49:39;;;;;;;0.77;0.55;;;18.30;61.30;20.40;93418.00;;;;10555459;27;45962;-59
2022/09/16 01:55:03;;;;;;;0.65;0.50;;;18.30;61.30;20.40;93414.00;;;;10512726;27;45199;-60
2022/09/16 02:00:24;;;;;;;0.60;0.52;;;18.30;61.30;20.40;93397.00;;;;10514831;27;45913;-60
2022/09/16 02:05:52;;;;;;;0.73;0.47;;;18.30;61.30;20.40;93414.00;;;;10512643;27;45147;-60
2022/09/16 02:11:16;;;;;;;0.85;0.55;;;18.30;61.20;20.40;93408.00;;;;10513788;27;45282;-59
2022/09/16 02:16:42;;;;;;;1.88;0.52;;;18.30;61.20;20.40;93408.00;;;;10522480;27;45185;-60
2022/09/16 02:22:10;;;;;;;1.13;0.50;;;18.30;61.20;20.40;93409.00;;;;10518085;27;45210;-58
2022/09/16 02:27:32;;;;;;;0.85;0.40;;;18.30;61.10;20.40;93402.00;;;;10542437;27;45708;-58
2022/09/16 02:33:00;;;;;;;0.80;0.50;;;18.30;61.10;20.40;93393.00;;;;10547222;27;45123;-59
2022/09/16 02:38:26;;;;;;;1.73;0.50;;;18.30;61.10;20.40;93398.00;;;;10511256;27;45212;-61
2022/09/16 02:43:47;;;;;;;0.68;0.40;;;18.30;61.90;20.40;93393.00;;;;10541857;27;45211;-61
2022/09/16 02:49:15;;;;;;;0.60;0.47;;;18.30;61.00;20.40;93383.00;;;;10553885;27;45216;-59
2022/09/16 02:54:45;;;;;;;0.80;0.60;;;18.30;61.00;20.40;93387.00;;;;10541654;27;45141;-59
2022/09/16 03:00:08;;;;;;;0.93;0.43;;;18.30;60.90;20.40;93371.00;;;;10550172;27;45233;-59
2022/09/16 03:05:29;;;;;;;1.70;0.50;;;18.30;61.00;20.40;93382.00;;;;10511438;27;45225;-60
2022/09/16 03:10:53;;;;;;;0.50;0.50;;;18.20;60.90;20.40;93377.00;;;;10511553;27;45873;-58
2022/09/16 03:16:23;;;;;;;0.65;0.60;;;18.20;60.90;20.40;93352.00;;;;10542507;27;45223;-59
2022/09/16 03:21:55;;;;;;;0.60;0.50;;;18.30;60.90;20.30;93357.00;;;;10560107;27;45152;-59
2022/09/16 03:27:25;;;;;;;0.57;0.50;;;18.20;60.80;20.40;93355.00;;;;10559345;27;45921;-59
2022/09/16 03:32:52;;;;;;;1.00;0.60;;;18.20;60.70;20.30;93349.00;;;;10556385;27;45228;-60
2022/09/16 03:38:14;;;;;;;0.85;0.38;;;18.20;60.70;20.40;93342.00;;;;10517699;27;45135;-59
2022/09/16 03:43:36;;;;;;;0.93;0.50;;;18.20;60.70;20.30;93349.00;;;;10518330;27;46023;-60
2022/09/16 03:48:58;;;;;;;0.73;0.55;;;18.20;60.70;20.40;93343.00;;;;10522178;27;45385;-60
2022/09/16 03:54:18;;;;;;;1.25;0.70;;;18.20;60.70;20.30;93337.00;;;;10522073;27;45265;-59
2022/09/16 03:59:40;;;;;;;0.65;0.40;;;18.20;60.70;20.40;93346.00;;;;10534564;27;45182;-59
2022/09/16 04:05:01;;;;;;;0.73;0.45;;;18.20;60.60;20.30;93348.00;;;;10517322;27;45287;-58
2022/09/16 04:10:21;;;;;;;0.60;0.40;;;18.20;60.60;20.30;93334.00;;;;10516558;27;45211;-60
2022/09/16 04:15:43;;;;;;;1.15;0.57;;;18.20;60.70;20.40;93338.00;;;;10516909;27;45132;-60
2022/09/16 04:21:05;;;;;;;0.73;0.40;;;18.20;60.60;20.30;93335.00;;;;10529565;27;45155;-60
2022/09/16 04:26:26;;;;;;;0.75;0.52;;;18.20;60.60;20.30;93325.00;;;;10536906;27;45269;-60
2022/09/16 04:31:48;;;;;;;0.57;0.50;;;18.20;60.50;20.30;93312.00;;;;10558520;27;45167;-60
2022/09/16 04:37:08;;;;;;;0.80;0.60;;;18.20;60.50;20.30;93320.00;;;;10516245;27;45738;-60
2022/09/16 04:42:29;;;;;;;0.60;0.50;;;18.20;60.60;20.30;93323.00;;;;10516731;27;45259;-59
2022/09/16 04:47:56;;;;;;;0.65;0.55;;;18.20;60.50;20.30;93325.00;;;;10516178;27;45187;-60
2022/09/16 04:53:17;;;;;;;1.65;0.57;;;18.20;60.60;20.30;93299.00;;;;10515962;27;45117;-59
2022/09/16 04:58:37;;;;;;;0.50;0.47;;;18.20;60.50;20.30;93308.00;;;;10518837;27;45766;-60
2022/09/16 05:04:02;;;;;;;1.10;0.60;;;18.20;60.50;20.30;93310.00;;;;10532392;27;45846;-59
2022/09/16 05:09:23;;;;;;;0.70;0.40;;;18.20;60.50;20.30;93308.00;;;;10514129;27;45296;-59
2022/09/16 05:14:43;;;;;;;1.77;0.60;;;18.20;60.50;20.30;93324.00;;;;10514983;27;45169;-59
2022/09/16 05:20:06;;;;;;;0.65;0.55;;;18.20;60.40;20.30;93315.00;;;;10514233;27;45214;-59
2022/09/16 05:25:27;;;;;;;0.73;0.43;;;18.20;60.40;20.30;93323.00;;;;10527309;27;45788;-60
2022/09/16 05:30:47;;;;;;;1.27;0.57;;;18.20;60.40;20.30;93300.00;;;;10556443;27;45913;-60
2022/09/16 05:36:12;;;;;;;0.68;0.50;;;18.20;60.40;20.30;93315.00;;;;10528801;27;45258;-60
2022/09/16 05:41:33;;;;;;;0.65;0.50;;;18.20;60.40;20.30;93306.00;;;;10555976;27;45104;-58
2022/09/16 05:46:54;;;;;;;0.50;0.50;;;18.20;60.30;20.30;93311.00;;;;10556465;27;45321;-59
2022/09/16 05:52:16;;;;;;;0.50;0.50;;;18.20;60.30;20.30;93305.00;;;;10556191;27;45178;-59
2022/09/16 05:57:37;;;;;;;0.95;0.43;;;18.20;60.20;20.30;93313.00;;;;10554825;27;45403;-59
2022/09/16 06:02:57;;;;;;;1.20;0.50;;;18.20;61.10;20.30;93295.00;;;;10537253;27;45238;-59
2022/09/16 06:08:19;;;;;;;0.63;0.50;;;18.20;60.20;20.30;93309.00;;;;10543552;27;45261;-59
2022/09/16 06:13:41;;;;;;;0.60;0.52;;;18.20;60.20;20.30;93312.00;;;;10521393;27;45750;-58
2022/09/16 06:19:09;;;;;;;0.73;0.50;;;18.20;61.10;20.30;93316.00;;;;10510126;27;45754;-59
2022/09/16 06:24:31;;;;;;;0.63;0.50;;;18.20;60.20;20.30;93314.00;;;;10542647;27;45372;-59
2022/09/16 06:29:51;;;;;;;1.10;0.52;;;18.20;60.20;20.30;93334.00;;;;10554718;27;45676;-60
2022/09/16 06:35:12;;;;;;;1.10;0.60;;;18.20;60.10;20.30;93328.00;;;;10528479;27;45221;-60
2022/09/16 06:40:34;;;;;;;0.90;0.52;;;18.20;60.20;20.30;93323.00;;;;10525658;27;45236;-59
2022/09/16 06:45:58;;;;;;;0.73;0.60;;;18.10;60.10;20.30;93326.00;;;;10534259;27;45298;-60
2022/09/16 06:51:21;;;;;;;0.63;0.50;;;18.20;60.10;20.30;93336.00;;;;10511156;27;45357;-61
2022/09/16 06:56:43;;;;;;;0.35;0.30;;;18.20;60.10;20.30;93327.00;;;;10511079;27;45285;-58
2022/09/16 07:02:04;;;;;;;0.90;0.50;;;18.20;60.20;20.30;93324.00;;;;10539454;27;45208;-59
2022/09/16 07:07:25;;;;;;;1.63;0.52;;;18.20;60.20;20.30;93329.00;;;;10511322;27;45297;-60
2022/09/16 07:12:46;;;;;;;0.88;0.40;;;18.10;60.10;20.30;93340.00;;;;10512033;27;45093;-60
2022/09/16 07:18:07;;;;;;;0.70;0.55;;;18.10;60.20;20.30;93347.00;;;;10509975;27;45203;-60
2022/09/16 07:23:30;;;;;;;0.50;0.50;;;18.10;60.20;20.30;93342.00;;;;10520956;27;45392;-61
2022/09/16 07:28:53;;;;;;;0.82;0.28;;;18.20;60.20;20.30;93346.00;;;;10546612;27;45201;-59
2022/09/16 07:34:14;;;;;;;0.80;0.60;;;18.10;60.20;20.30;93355.00;;;;10526749;27;45585;-58
2022/09/16 07:39:35;;;;;;;1.42;0.50;;;18.10;60.20;20.30;93350.00;;;;10510016;27;45215;-59
2022/09/16 07:44:57;;;;;;;1.15;0.50;;;18.10;60.20;20.20;93362.00;;;;10513603;27;45202;-59
2022/09/16 07:50:18;;;;;;;1.27;0.50;;;18.10;60.10;20.30;93360.00;;;;10520114;27;45182;-60
2022/09/16 07:55:38;;;;;;;0.88;0.50;;;18.20;60.20;20.20;93358.00;;;;10518653;27;45176;-60
2022/09/16 08:01:01;;;;;;;1.45;0.40;;;18.10;60.20;20.30;93349.00;;;;10529116;27;45854;-59
2022/09/16 08:06:25;;;;;;;0.43;0.43;;;18.20;60.30;20.30;93355.00;;;;10516542;27;45747;-59
2022/09/16 08:11:46;;;;;;;1.77;0.50;;;18.20;60.40;20.30;93351.00;;;;10511607;27;45678;-58
2022/09/16 08:17:07;;;;;;;1.58;0.63;;;18.20;60.60;20.40;93350.00;;;;10513052;27;45231;-58
2022/09/16 08:22:28;;;;;;;1.10;0.50;;;18.30;60.80;20.40;93365.00;;;;10516413;27;45130;-59
2022/09/16 08:27:48;;;;;;;0.70;0.57;;;18.30;60.50;20.40;93360.00;;;;10548909;27;45289;-60
2022/09/16 08:33:10;;;;;;;0.98;0.60;;;18.30;61.00;20.50;93381.00;;;;10550295;27;45168;-60
2022/09/16 08:38:32;;;;;;;1.27;0.70;;;18.40;61.30;20.50;93381.00;;;;10547940;27;45220;-60
2022/09/16 08:44:06;;;;;;;1.30;0.65;;;18.40;62.40;20.50;93371.00;;;;10515758;27;45206;-60
2022/09/16 08:49:35;;;;;;;1.42;0.70;;;18.40;61.60;20.50;93367.00;;;;10515074;27;45200;-61
2022/09/16 08:55:00;;;;;;;1.30;0.57;;;18.40;61.20;20.50;93369.00;;;;10515117;27;45962;-60
2022/09/16 09:00:21;;;;;;;1.13;0.60;;;18.40;61.30;20.50;93369.00;;;;10531576;27;45361;-61
2022/09/16 09:05:50;;;;;;;1.42;0.70;;;18.40;61.40;20.50;93383.00;;;;10515259;27;45890;-60
2022/09/16 09:11:17;;;;;;;0.60;0.50;;;18.40;61.40;20.50;93382.00;;;;10515315;27;45950;-60
2022/09/16 09:16:46;;;;;;;1.33;0.63;;;18.40;61.50;20.50;93371.00;;;;10521643;27;45135;-60
2022/09/16 09:22:54;;;;;;;0.80;0.70;;;18.40;62.30;20.50;93381.00;;;;10513417;27;45195;-60
2022/09/16 09:28:39;;;;;;;1.17;0.50;;;18.40;62.30;20.50;93374.00;;;;10548442;27;45244;-60
2022/09/16 09:34:14;;;;;;;1.05;0.70;;;18.40;62.70;20.60;93381.00;;;;10537740;27;45877;-58
2022/09/16 09:40:00;;;;;;;0.90;0.70;;;18.50;62.90;20.60;93379.00;;;;10517260;27;45237;-59
2022/09/16 09:45:26;;;;;;;2.92;1.00;;;18.50;64.50;20.60;93360.00;;;;10520877;27;45218;-59
2022/09/16 09:50:49;;;;;;;3.55;0.75;;;18.50;63.50;20.60;93369.00;;;;10531112;27;45769;-58
2022/09/16 09:56:21;;;;;;;1.73;0.60;;;18.50;63.80;20.60;93372.00;;;;10540536;27;47354;-59
2022/09/16 10:01:42;;;;;;;1.08;0.68;;;18.60;63.50;20.70;93370.00;;;;10538159;27;45173;-60
2022/09/16 10:07:04;;;;;;;0.73;0.60;;;18.60;63.70;20.70;93378.00;;;;10512042;27;45161;-59
2022/09/16 10:12:33;;;;;;;0.70;0.50;;;18.60;63.80;20.70;93381.00;;;;10535078;27;45286;-60
2022/09/16 10:17:55;;;;;;;1.63;0.88;;;18.60;64.30;20.70;93377.00;;;;10510552;27;45225;-60
2022/09/16 10:23:24;;;;;;;1.50;0.80;;;18.60;63.90;20.70;93376.00;;;;10512197;27;45219;-60
2022/09/16 10:29:00;;;;;;;0.95;0.80;;;18.60;63.90;20.70;93367.00;;;;10524852;27;45187;-60
2022/09/16 10:34:30;;;;;;;1.88;0.80;;;18.60;63.90;20.60;93345.00;;;;10524364;27;45692;-60
2022/09/16 10:39:54;;;;;;;2.30;0.90;;;18.50;63.70;20.70;93358.00;;;;10512096;27;45229;-60
2022/09/16 10:45:25;;;;;;;0.93;0.80;;;18.60;63.80;20.60;93359.00;;;;10511794;27;45222;-60
2022/09/16 10:50:54;;;;;;;1.52;0.80;;;18.50;63.80;20.60;93370.00;;;;10526204;27;45317;-60
2022/09/16 10:56:19;;;;;;;0.90;0.70;;;18.50;64.10;20.60;93371.00;;;;10532095;27;45398;-60
2022/09/16 11:01:51;;;;;;;1.48;0.60;;;18.50;63.70;20.60;93370.00;;;;10537854;27;45326;-60
2022/09/16 11:07:27;;;;;;;1.23;0.80;;;18.50;64.10;20.60;93383.00;;;;10511665;28;45566;-60
2022/09/16 11:13:37;;;;;;;1.02;0.75;;;18.50;63.80;20.60;93372.00;;;;10528349;27;45684;-59
2022/09/16 11:19:07;;;;;;;2.42;0.70;;;18.50;64.00;20.60;93360.00;;;;10509519;27;45335;-61
2022/09/16 11:25:14;;;;;;;1.27;0.80;;;18.50;63.70;20.60;93381.00;;;;10541066;27;45165;-61
2022/09/16 11:30:42;;;;;;;1.83;0.75;;;18.50;63.70;20.60;93366.00;;;;10552758;27;45788;-60
2022/09/16 11:36:33;;;;;;;0.95;0.80;;;18.50;63.90;20.60;93359.00;;;;10511423;27;45953;-61
2022/09/16 11:42:03;;;;;;;2.15;0.70;;;18.50;63.70;20.60;93375.00;;;;10540773;27;45217;-60
2022/09/16 11:47:58;;;;;;;1.00;0.75;;;18.50;63.90;20.60;93375.00;;;;10517730;27;45284;-60
2022/09/16 11:53:55;;;;;;;1.67;0.60;;;18.50;63.80;20.60;93378.00;;;;10518012;27;45206;-59
2022/09/16 11:59:24;;;;;;;0.98;0.80;;;18.50;63.50;20.60;93388.00;;;;10517797;27;45191;-60
2022/09/16 12:04:52;;;;;;;1.38;0.70;;;18.50;63.50;20.60;93374.00;;;;10517679;27;45428;-61
2022/09/16 12:10:20;;;;;;;0.82;0.60;;;18.40;63.60;20.60;93371.00;;;;10517333;27;45220;-61
2022/09/16 12:15:46;;;;;;;3.42;0.68;;;18.40;63.50;20.60;93365.00;;;;10533085;27;45759;-60
2022/09/16 12:21:13;;;;;;;0.65;0.60;;;18.50;63.60;20.60;93367.00;;;;10526130;27;45785;-60
2022/09/16 12:26:40;;;;;;;1.05;0.70;;;18.50;63.50;20.60;93375.00;;;;10545562;27;45363;-60
2022/09/16 12:32:08;;;;;;;1.10;0.77;;;18.50;63.50;20.60;93369.00;;;;10558897;27;45701;-59
2022/09/16 12:37:36;;;;;;;1.58;0.80;;;18.50;63.10;20.70;93375.00;;;;10542548;27;45221;-60
2022/09/16 12:43:23;;;;;;;1.23;0.65;;;18.50;62.90;20.70;93395.00;;;;10530866;27;45850;-60
2022/09/16 12:49:19;;;;;;;2.47;0.80;;;18.50;62.70;20.70;93390.00;;;;10545842;27;45217;-60
2022/09/16 12:55:31;;;;;;;1.05;0.70;;;18.50;62.20;20.60;93407.00;;;;10553351;27;45220;-59
2022/09/16 13:01:03;;;;;;;0.93;0.77;;;18.50;62.00;20.60;93410.00;;;;10556974;27;45223;-60
2022/09/16 13:06:27;;;;;;;1.15;0.82;;;18.50;62.10;20.60;93416.00;;;;10557079;27;45305;-61
2022/09/16 13:11:55;;;;;;;1.23;0.77;;;18.50;62.10;20.60;93408.00;;;;10558007;27;45182;-60
2022/09/16 13:17:27;;;;;;;;;;;18.50;61.90;20.60;93431.00;;;;10557109;27;45225;-60
2022/09/16 13:23:02;;;;;;;1.15;0.73;;;18.50;62.00;20.50;93399.00;;;;10557396;27;45167;-60
2022/09/16 13:28:34;;;;;;;1.33;0.65;;;18.50;62.20;20.60;93404.00;;;;10555799;27;45127;-60
2022/09/16 13:34:16;;;;;;;1.40;0.70;;;18.50;62.20;20.60;93419.00;;;;10543147;27;45308;-61
2022/09/16 13:39:37;;;;;;;0.75;0.70;;;18.40;62.00;20.50;93410.00;;;;10530240;27;45170;-60
2022/09/16 13:44:57;;;;;;;0.63;0.63;;;18.40;62.00;20.50;93408.00;;;;10518534;27;45232;-60
2022/09/16 13:50:24;;;;;;;0.80;0.60;;;18.40;62.00;20.50;93408.00;;;;10513651;27;45181;-60
2022/09/16 13:55:48;;;;;;;1.63;0.70;;;18.40;62.00;20.50;93407.00;;;;10513786;27;45285;-60
2022/09/16 14:01:16;;;;;;;0.90;0.60;;;18.40;62.00;20.50;93414.00;;;;10512834;27;45195;-60
2022/09/16 14:06:55;;;;;;;0.73;0.45;;;18.40;61.70;20.50;93414.00;;;;10543902;27;45335;-60
2022/09/16 14:12:26;;;;;;;0.73;0.60;;;18.40;61.70;20.50;93421.00;;;;10556336;27;45198;-59
2022/09/16 14:17:51;;;;;;;1.02;0.60;;;18.40;61.70;20.50;93419.00;;;;10555844;27;46267;-59
2022/09/16 14:23:18;;;;;;;1.27;0.60;;;18.40;61.60;20.50;93413.00;;;;10556173;27;45214;-59
2022/09/16 14:28:39;;;;;;;1.60;0.60;;;18.40;61.60;20.50;93401.00;;;;10555020;27;45179;-59
2022/09/16 14:34:05;;;;;;;0.85;0.50;;;18.40;61.70;20.50;93396.00;;;;10540093;27;45206;-60
2022/09/16 14:39:29;;;;;;;0.95;0.50;;;18.40;61.50;20.50;93395.00;;;;10512320;27;45134;-59
2022/09/16 14:44:53;;;;;;;1.30;0.50;;;18.40;61.50;20.50;93389.00;;;;10526858;27;45174;-59
2022/09/16 14:50:19;;;;;;;0.90;0.60;;;18.40;61.40;20.50;93379.00;;;;10535579;27;45509;-59
2022/09/16 14:55:49;;;;;;;0.67;0.57;;;18.40;61.10;20.60;93393.00;;;;10530463;27;45262;-58
2022/09/16 15:01:16;;;;;;;2.35;0.80;;;18.50;61.10;20.60;93386.00;;;;10524914;27;45209;-59
2022/09/16 15:06:47;;;;;;;0.80;0.63;;;18.50;59.10;20.60;93395.00;;;;10535968;27;45862;-59
2022/09/16 15:12:21;;;;;;;2.00;0.90;;;18.50;60.20;20.50;93410.00;;;;10550392;27;45136;-59
2022/09/16 15:17:42;;;;;;;5.80;2.00;;;18.40;60.00;20.50;93400.00;;;;10553113;27;45262;-59
2022/09/16 15:23:03;;;;;;;17.33;5.13;;;18.40;60.00;20.50;93415.00;;;;10554219;27;45237;-59
2022/09/16 15:28:25;;;;;;;21.20;6.30;;;18.40;60.10;20.50;93425.00;;;;10553216;27;45234;-59
2022/09/16 15:33:52;;;;;;;23.38;7.20;;;18.40;60.00;20.50;93425.00;;;;10540397;27;45189;-59
2022/09/16 15:39:25;;;;;;;23.77;7.45;;;18.40;60.10;20.50;93421.00;;;;10510934;28;45245;-59
2022/09/16 15:44:49;;;;;;;24.80;6.72;;;18.40;60.10;20.50;93422.00;;;;10534913;27;45383;-59
2022/09/16 15:50:14;;;;;;;16.15;5.03;;;18.40;60.10;20.50;93423.00;;;;10552495;27;45719;-60
2022/09/16 15:55:39;;;;;;;14.70;4.93;;;18.40;60.20;20.50;93425.00;;;;10552653;27;45800;-59
2022/09/16 16:01:06;;;;;;;16.38;5.18;;;18.40;60.10;20.60;93424.00;;;;10553119;27;45144;-60
2022/09/16 16:06:50;;;;;;;14.23;4.50;;;18.40;60.10;20.60;93404.00;;;;10532560;27;45236;-59
2022/09/16 16:12:15;;;;;;;12.15;4.00;;;18.50;60.20;20.70;93422.00;;;;10508476;27;45181;-59
2022/09/16 16:17:37;;;;;;;14.80;4.10;;;18.60;60.80;20.70;93424.00;;;;10531455;27;46024;-60
2022/09/16 16:22:57;;;;;;;10.43;3.38;;;18.60;60.10;20.70;93432.00;;;;10527276;27;45518;-59
2022/09/16 16:28:18;;;;;;;8.02;3.15;;;18.60;60.00;20.70;93421.00;;;;10541481;27;45341;-59
2022/09/16 16:33:43;;;;;;;10.30;3.10;;;18.60;59.80;20.70;93434.00;;;;10528277;27;45334;-59
2022/09/16 16:39:03;;;;;;;8.82;2.63;;;18.60;59.70;20.70;93431.00;;;;10546036;27;45441;-60
2022/09/16 16:44:25;;;;;;;8.00;2.75;;;18.60;59.40;20.60;93439.00;;;;10521841;27;45766;-60
2022/09/16 16:49:47;;;;;;;7.63;2.63;;;18.50;59.40;20.60;93431.00;;;;10514500;27;45680;-60
2022/09/16 16:55:09;;;;;;;8.07;2.40;;;18.50;59.50;20.60;93432.00;;;;10515425;27;45147;-60
2022/09/16 17:00:30;;;;;;;4.65;1.95;;;18.40;59.70;20.60;93424.00;;;;10514833;27;45088;-61
2022/09/16 17:05:52;;;;;;;5.35;2.00;;;18.50;59.70;20.60;93434.00;;;;10514950;27;45426;-60
2022/09/16 17:11:14;;;;;;;5.10;1.90;;;18.50;59.70;20.50;93417.00;;;;10514679;27;45167;-60
2022/09/16 17:16:35;;;;;;;4.35;1.83;;;18.40;59.50;20.50;93434.00;;;;10514775;27;45462;-59
2022/09/16 17:21:57;;;;;;;4.32;1.65;;;18.40;59.50;20.50;93434.00;;;;10514296;27;45144;-60
2022/09/16 17:27:19;;;;;;;3.88;1.52;;;18.40;59.40;20.50;93441.00;;;;10541185;27;45365;-60
2022/09/16 17:32:40;;;;;;;4.00;1.52;;;18.30;59.40;20.50;93426.00;;;;10552992;27;45131;-60
2022/09/16 17:38:02;;;;;;;3.85;1.40;;;18.40;59.40;20.50;93421.00;;;;10515739;27;45414;-60
2022/09/16 17:43:25;;;;;;;3.72;1.30;;;18.30;59.30;20.50;93430.00;;;;10542108;27;45179;-60
2022/09/16 17:48:46;;;;;;;3.42;1.27;;;18.30;59.20;20.40;93432.00;;;;10519179;27;45462;-60
2022/09/16 17:54:08;;;;;;;3.60;1.40;;;18.30;59.20;20.40;93432.00;;;;10513861;27;45497;-60
2022/09/16 17:59:29;;;;;;;3.28;1.20;;;18.30;59.10;20.40;93440.00;;;;10511986;27;45254;-60
2022/09/16 18:04:50;;;;;;;3.10;1.00;;;18.30;59.10;20.40;93448.00;;;;10513173;27;45135;-59
2022/09/16 18:10:11;;;;;;;3.47;1.15;;;18.30;59.10;20.40;93456.00;;;;10513112;27;45835;-60
2022/09/16 18:15:32;;;;;;;2.20;0.82;;;18.30;59.00;20.40;93455.00;;;;10513510;27;45746;-59
2022/09/16 18:20:55;;;;;;;1.58;0.73;;;18.30;59.00;20.40;93459.00;;;;10532464;27;45777;-60
2022/09/16 18:26:17;;;;;;;2.42;0.80;;;18.30;58.90;20.40;93453.00;;;;10531903;27;45286;-60
2022/09/16 18:31:40;;;;;;;2.38;0.95;;;18.20;58.80;20.30;93450.00;;;;10554722;27;45397;-60
2022/09/16 18:37:01;;;;;;;2.85;0.98;;;18.20;58.70;20.30;93473.00;;;;10514132;27;45218;-60
2022/09/16 18:42:23;;;;;;;4.50;1.02;;;18.20;58.60;20.30;93454.00;;;;10512253;27;45181;-59
2022/09/16 18:47:44;;;;;;;2.30;0.80;;;18.20;58.60;20.30;93469.00;;;;10511693;27;45692;-60
2022/09/16 18:53:05;;;;;;;1.80;0.50;;;18.20;58.60;20.30;93462.00;;;;10511930;27;45282;-60
2022/09/16 18:58:27;;;;;;;2.42;0.70;;;18.20;58.50;20.30;93479.00;;;;10511298;27;45202;-59
2022/09/16 19:03:47;;;;;;;1.00;0.60;;;18.20;58.50;20.30;93477.00;;;;10511673;27;45516;-60
2022/09/16 19:09:12;;;;;;;0.98;0.47;;;18.20;58.40;20.30;93489.00;;;;10511343;27;45269;-60
2022/09/16 19:14:34;;;;;;;1.13;0.50;;;18.20;58.40;20.30;93488.00;;;;10511269;27;45218;-60
2022/09/16 19:19:55;;;;;;;1.15;0.40;;;18.20;58.40;20.30;93489.00;;;;10525615;27;45556;-59
2022/09/16 19:25:16;;;;;;;1.27;0.52;;;18.20;59.00;20.30;93475.00;;;;10527265;27;45649;-60
2022/09/16 19:30:38;;;;;;;1.00;0.65;;;18.10;58.20;20.30;93482.00;;;;10551474;27;45302;-59
2022/09/16 19:35:58;;;;;;;1.50;0.60;;;18.10;58.00;20.20;93494.00;;;;10510058;27;45482;-60
2022/09/16 19:41:23;;;;;;;1.20;0.60;;;18.10;58.00;20.20;93502.00;;;;10510235;27;44967;-60
2022/09/16 19:46:47;;;;;;;1.02;0.47;;;18.10;58.00;20.20;93502.00;;;;10508223;27;45198;-59
2022/09/16 19:52:08;;;;;;;1.30;0.40;;;18.10;58.00;20.20;93484.00;;;;10539729;27;45225;-59
2022/09/16 19:57:28;;;;;;;1.17;0.57;;;18.10;58.00;20.20;93498.00;;;;10551575;27;45260;-60
2022/09/16 20:02:50;;;;;;;1.08;0.50;;;18.10;57.90;20.20;93503.00;;;;10519758;27;45695;-59
2022/09/16 20:08:11;;;;;;;0.63;0.40;;;18.10;57.80;20.20;93489.00;;;;10516989;27;45188;-59
2022/09/16 20:13:33;;;;;;;1.23;0.40;;;18.10;57.80;20.20;93500.00;;;;10517447;27;45234;-60
2022/09/16 20:18:54;;;;;;;0.40;0.32;;;18.10;57.70;20.20;93483.00;;;;10516409;27;45207;-59
2022/09/16 20:24:18;;;;;;;0.63;0.35;;;18.10;57.70;20.20;93493.00;;;;10518452;27;45266;-59
2022/09/16 20:29:38;;;;;;;0.55;0.30;;;18.10;57.70;20.20;93501.00;;;;10558095;27;45292;-60
2022/09/16 20:35:01;;;;;;;0.45;0.30;;;18.10;57.70;20.20;93517.00;;;;10535186;27;45291;-60
2022/09/16 20:40:22;;;;;;;1.00;0.50;;;18.00;57.60;20.20;93512.00;;;;10516505;28;45205;-60
2022/09/16 20:45:43;;;;;;;0.65;0.40;;;18.10;57.60;20.20;93529.00;;;;10515965;27;45231;-60
2022/09/16 20:51:08;;;;;;;0.93;0.50;;;18.00;57.50;20.20;93546.00;;;;10515499;27;45334;-60
2022/09/16 20:56:29;;;;;;;0.75;0.50;;;18.00;57.50;20.10;93533.00;;;;10512641;27;45215;-59
2022/09/16 21:01:49;;;;;;;1.30;0.30;;;18.00;57.50;20.10;93555.00;;;;10521342;27;45222;-60
2022/09/16 21:07:11;;;;;;;0.30;0.30;;;18.00;57.30;20.20;93553.00;;;;10513778;27;45657;-60
2022/09/16 21:12:32;;;;;;;0.73;0.32;;;18.00;57.40;20.10;93546.00;;;;10515422;27;45219;-61
2022/09/16 21:17:55;;;;;;;0.28;0.25;;;18.00;57.40;20.10;93546.00;;;;10544506;27;45840;-60
2022/09/16 21:23:17;;;;;;;0.30;0.30;;;18.00;57.30;20.10;93558.00;;;;10557642;27;45303;-60
2022/09/16 21:28:37;;;;;;;0.40;0.20;;;18.00;57.30;20.10;93555.00;;;;10556566;27;45492;-60
2022/09/16 21:33:58;;;;;;;0.55;0.20;;;18.00;57.20;20.10;93551.00;;;;10541430;27;46421;-59
2022/09/16 21:39:21;;;;;;;1.35;0.30;;;18.00;57.20;20.10;93561.00;;;;10514000;27;45293;-60
2022/09/16 21:44:41;;;;;;;0.77;0.30;;;18.00;57.20;20.10;93551.00;;;;10514311;27;45223;-59
2022/09/16 21:50:03;;;;;;;1.13;0.25;;;18.00;57.20;20.10;93565.00;;;;10514039;27;45471;-60
2022/09/16 21:55:25;;;;;;;1.05;0.20;;;18.00;57.10;20.10;93556.00;;;;10513697;27;45183;-60
2022/09/16 22:00:45;;;;;;;0.40;0.20;;;18.00;57.20;20.10;93549.00;;;;10532452;27;45295;-59
2022/09/16 22:06:08;;;;;;;1.30;0.30;;;17.90;56.90;20.10;93551.00;;;;10512903;27;45796;-60
2022/09/16 22:11:32;;;;;;;0.52;0.30;;;18.00;57.00;20.10;93556.00;;;;10544233;27;45200;-60
2022/09/16 22:16:52;;;;;;;0.10;0.10;;;17.90;56.90;20.10;93556.00;;;;10555220;27;45857;-60
2022/09/16 22:22:13;;;;;;;0.52;0.30;;;17.90;56.90;20.10;93548.00;;;;10554865;27;45757;-59
2022/09/16 22:27:34;;;;;;;0.20;0.20;;;17.90;57.50;20.10;93537.00;;;;10554294;27;45149;-60
2022/09/16 22:32:55;;;;;;;0.98;0.22;;;17.90;56.90;20.10;93552.00;;;;10546179;27;45798;-59
2022/09/16 22:38:16;;;;;;;0.20;0.10;;;17.90;56.80;20.00;93554.00;;;;10522303;27;45336;-60
2022/09/16 22:43:39;;;;;;;0.43;0.10;;;17.90;56.60;20.00;93541.00;;;;10513508;27;45954;-60
2022/09/16 22:49:00;;;;;;;0.47;0.20;;;17.90;56.70;20.00;93545.00;;;;10512498;27;45178;-59
2022/09/16 22:54:21;;;;;;;0.17;0.10;;;17.90;56.60;20.00;93551.00;;;;10511944;27;45229;-60
2022/09/16 22:59:43;;;;;;;0.63;0.22;;;17.90;56.70;20.00;93551.00;;;;10535425;27;45159;-60
2022/09/16 23:05:06;;;;;;;0.88;0.25;;;17.90;56.50;20.00;93551.00;;;;10510386;27;45381;-60
2022/09/16 23:10:26;;;;;;;0.10;0.10;;;17.90;56.60;20.00;93544.00;;;;10511124;27;45210;-60
2022/09/16 23:15:52;;;;;;;0.10;0.10;;;17.90;56.60;20.00;93549.00;;;;10510810;27;45485;-59
2022/09/16 23:21:14;;;;;;;0.40;0.20;;;17.90;56.50;20.00;93547.00;;;;10541363;27;45943;-59
2022/09/16 23:26:37;;;;;;;0.80;0.17;;;17.90;56.50;20.00;93551.00;;;;10552864;27;45223;-59
2022/09/16 23:32:01;;;;;;;0.20;0.10;;;17.90;56.50;20.00;93531.00;;;;10554454;27;45209;-60
2022/09/16 23:37:21;;;;;;;0.32;0.22;;;17.90;56.40;20.00;93552.00;;;;10518103;27;45239;-59
2022/09/16 23:42:42;;;;;;;1.13;0.30;;;17.90;56.40;20.00;93550.00;;;;10518266;27;45642;-60
2022/09/16 23:48:05;;;;;;;0.82;0.30;;;17.90;56.40;20.00;93561.00;;;;10517635;27;45917;-60